createdAt,value
2022-10-04T00:00:49.786Z,98693.50
2022-10-04T00:03:23.790Z,98695.38
2022-10-04T00:05:55.412Z,98694.34
2022-10-04T00:08:29.021Z,98700.72
2022-10-04T00:11:07.666Z,98690.28
2022-10-04T00:13:38.078Z,98698.84
2022-10-04T00:16:06.120Z,98691.16
2022-10-04T00:18:40.595Z,98678.75
2022-10-04T00:21:08.512Z,98687.22
2022-10-04T00:23:45.189Z,98690.44
2022-10-04T00:26:58.162Z,98685.16
2022-10-04T00:29:31.769Z,98692.88
2022-10-04T00:32:25.981Z,98698.41
2022-10-04T00:34:53.806Z,98689.88
2022-10-04T00:37:22.042Z,98688.31
2022-10-04T00:39:59.021Z,98692.66
2022-10-04T00:42:38.314Z,98684.56
2022-10-04T00:45:14.214Z,98677.28
2022-10-04T00:48:04.373Z,98680.41
2022-10-04T00:50:36.108Z,98684.56
2022-10-04T00:53:14.750Z,98678.44
2022-10-04T00:55:47.631Z,98690.28
2022-10-04T00:58:21.706Z,98694.84
2022-10-04T01:00:49.539Z,98689.16
2022-10-04T01:03:21.110Z,98685.97
2022-10-04T01:05:53.965Z,98686.59
2022-10-04T01:08:27.347Z,98680.16
2022-10-04T01:10:57.775Z,98674.06
2022-10-04T01:13:30.694Z,98686.41
2022-10-04T01:16:02.658Z,98689.66
2022-10-04T01:18:32.129Z,98687.09
2022-10-04T01:21:03.009Z,98695.22
2022-10-04T01:23:42.925Z,98690.50
2022-10-04T01:26:38.029Z,98704.53
2022-10-04T01:29:11.821Z,98702.03
2022-10-04T01:31:41.900Z,98699.06
2022-10-04T01:34:12.123Z,98703.84
2022-10-04T01:36:39.890Z,98704.47
2022-10-04T01:39:08.533Z,98708.25
2022-10-04T01:41:44.755Z,98711.63
2022-10-04T01:44:20.122Z,98714.19
2022-10-04T01:46:49.767Z,98708.03
2022-10-04T01:49:20.565Z,98699.13
2022-10-04T01:51:54.704Z,98702.66
2022-10-04T01:54:32.248Z,98711.00
2022-10-04T01:57:03.794Z,98709.00
2022-10-04T01:59:38.036Z,98703.84
2022-10-04T02:02:09.569Z,98707.03
2022-10-04T02:04:39.029Z,98697.53
2022-10-04T02:07:12.311Z,98700.47
2022-10-04T02:09:44.570Z,98703.25
2022-10-04T02:12:16.378Z,98703.25
2022-10-04T02:14:53.253Z,98710.38
2022-10-04T02:17:23.446Z,98700.53
2022-10-04T02:19:51.110Z,98704.22
2022-10-04T02:22:19.313Z,98710.78
2022-10-04T02:24:49.769Z,98708.63
2022-10-04T02:27:17.444Z,98713.59
2022-10-04T02:29:44.631Z,98710.25
2022-10-04T02:32:33.062Z,98721.34
2022-10-04T02:35:00.324Z,98724.13
2022-10-04T02:37:28.849Z,98720.59
2022-10-04T02:40:03.004Z,98723.97
2022-10-04T02:42:39.440Z,98730.50
2022-10-04T02:45:15.424Z,98736.84
2022-10-04T02:47:47.167Z,98745.69
2022-10-04T02:50:26.488Z,98729.94
2022-10-04T02:52:58.601Z,98744.53
2022-10-04T02:55:29.976Z,98734.69
2022-10-04T02:57:58.658Z,98739.22
2022-10-04T03:00:27.449Z,98746.75
2022-10-04T03:03:18.685Z,98749.50
2022-10-04T03:05:53.918Z,98742.59
2022-10-04T03:08:20.847Z,98738.84
2022-10-04T03:10:50.890Z,98738.03
2022-10-04T03:13:20.623Z,98738.81
2022-10-04T03:15:50.311Z,98737.66
2022-10-04T03:18:18.634Z,98741.00
2022-10-04T03:20:47.377Z,98737.22
2022-10-04T03:23:17.432Z,98736.47
2022-10-04T03:25:52.281Z,98741.97
2022-10-04T03:28:20.227Z,98744.34
2022-10-04T03:30:48.197Z,98745.50
2022-10-04T03:33:19.135Z,98740.78
2022-10-04T03:35:49.316Z,98749.66
2022-10-04T03:38:17.934Z,98755.19
2022-10-04T03:40:53.941Z,98749.41
2022-10-04T03:43:25.250Z,98754.75
2022-10-04T03:45:53.968Z,98757.31
2022-10-04T03:48:29.014Z,98750.63
2022-10-04T03:50:57.153Z,98755.34
2022-10-04T03:53:29.775Z,98753.38
2022-10-04T03:56:04.086Z,98764.44
2022-10-04T03:58:31.922Z,98754.94
2022-10-04T04:01:19.292Z,98755.75
2022-10-04T04:04:02.230Z,98754.19
2022-10-04T04:06:37.846Z,98771.38
2022-10-04T04:09:06.678Z,98764.28
2022-10-04T04:11:36.600Z,98765.66
2022-10-04T04:14:08.406Z,98775.34
2022-10-04T04:16:37.475Z,98767.66
2022-10-04T04:19:12.670Z,98771.59
2022-10-04T04:21:41.503Z,98777.53
2022-10-04T04:24:18.529Z,98789.75
2022-10-04T04:26:54.189Z,98788.00
2022-10-04T04:29:24.744Z,98789.97
2022-10-04T04:31:55.193Z,98799.25
2022-10-04T04:34:25.517Z,98802.00
2022-10-04T04:36:59.102Z,98808.31
2022-10-04T04:39:45.289Z,98816.63
2022-10-04T04:42:16.827Z,98820.38
2022-10-04T04:44:49.792Z,98832.78
2022-10-04T04:47:28.483Z,98827.25
2022-10-04T04:49:58.148Z,98824.09
2022-10-04T04:52:28.726Z,98835.50
2022-10-04T04:54:56.680Z,98837.78
2022-10-04T04:57:25.733Z,98837.56
2022-10-04T04:59:58.334Z,98843.34
2022-10-04T05:02:37.095Z,98846.06
2022-10-04T05:05:20.199Z,98859.50
2022-10-04T05:07:48.251Z,98850.09
2022-10-04T05:10:36.821Z,98852.94
2022-10-04T05:13:08.734Z,98863.88
2022-10-04T05:15:37.709Z,98861.41
2022-10-04T05:18:17.782Z,98855.34
2022-10-04T05:20:50.459Z,98867.34
2022-10-04T05:23:17.912Z,98862.84
2022-10-04T05:25:45.361Z,98860.66
2022-10-04T05:28:18.776Z,98848.09
2022-10-04T05:30:52.047Z,98861.28
2022-10-04T05:33:24.402Z,98859.50
2022-10-04T05:36:09.654Z,98863.34
2022-10-04T05:38:43.688Z,98850.31
2022-10-04T05:41:21.814Z,98855.19
2022-10-04T05:43:51.397Z,98865.31
2022-10-04T05:46:23.789Z,98863.66
2022-10-04T05:48:54.589Z,98862.81
2022-10-04T05:51:25.496Z,98872.09
2022-10-04T05:53:54.327Z,98871.66
2022-10-04T05:56:57.087Z,98868.13
2022-10-04T05:59:45.812Z,98875.78
2022-10-04T06:02:26.958Z,98887.56
2022-10-04T06:05:06.360Z,98885.63
2022-10-04T06:07:38.212Z,98880.44
2022-10-04T06:10:38.630Z,98886.91
2022-10-04T06:13:17.063Z,98891.03
2022-10-04T06:16:01.556Z,98902.63
2022-10-04T06:18:42.498Z,98912.59
2022-10-04T06:21:18.849Z,98908.06
2022-10-04T06:23:53.887Z,98919.59
2022-10-04T06:26:25.044Z,98920.81
2022-10-04T06:28:56.124Z,98921.19
2022-10-04T06:32:15.050Z,98927.28
2022-10-04T06:35:07.189Z,98928.16
2022-10-04T06:37:58.495Z,98929.53
2022-10-04T06:40:51.992Z,98921.97
2022-10-04T06:43:31.603Z,98920.19
2022-10-04T06:46:09.912Z,98928.81
2022-10-04T06:49:07.605Z,98936.19
2022-10-04T06:51:46.736Z,98930.44
2022-10-04T06:54:32.031Z,98930.38
2022-10-04T06:57:22.285Z,98938.00
2022-10-04T07:00:08.539Z,98944.78
2022-10-04T07:02:40.805Z,98943.75
2022-10-04T07:05:21.696Z,98946.88
2022-10-04T07:08:06.860Z,98950.53
2022-10-04T07:10:47.293Z,98943.75
2022-10-04T07:13:28.876Z,98950.03
2022-10-04T07:16:01.609Z,98947.94
2022-10-04T07:18:35.355Z,98952.63
2022-10-04T07:21:07.843Z,98943.16
2022-10-04T07:23:40.583Z,98949.06
2022-10-04T07:26:19.951Z,98952.41
2022-10-04T07:29:07.900Z,98956.25
2022-10-04T07:31:36.892Z,98952.56
2022-10-04T07:34:12.016Z,98944.47
2022-10-04T07:36:45.352Z,98950.75
2022-10-04T07:39:17.070Z,98951.69
2022-10-04T07:41:50.468Z,98940.91
2022-10-04T07:44:30.274Z,98952.56
2022-10-04T07:47:02.757Z,98949.50
2022-10-04T07:49:38.529Z,98944.66
2022-10-04T07:52:28.349Z,98948.09
2022-10-04T07:55:06.002Z,98955.81
2022-10-04T07:57:40.370Z,98951.47
2022-10-04T08:00:16.025Z,98951.84
2022-10-04T08:02:58.712Z,98956.09
2022-10-04T08:05:29.805Z,98949.28
2022-10-04T08:08:18.117Z,98954.53
2022-10-04T08:10:57.417Z,98955.00
2022-10-04T08:13:32.508Z,98955.56
2022-10-04T08:16:03.696Z,98952.38
2022-10-04T08:18:43.617Z,98952.19
2022-10-04T08:21:17.033Z,98945.38
2022-10-04T08:24:00.058Z,98953.09
2022-10-04T08:26:45.505Z,98954.06
2022-10-04T08:29:45.016Z,98949.63
2022-10-04T08:32:29.871Z,98948.91
2022-10-04T08:35:23.336Z,98958.06
2022-10-04T08:38:06.369Z,98953.22
2022-10-04T08:41:06.072Z,98959.03
2022-10-04T08:44:01.270Z,98958.38
2022-10-04T08:47:04.174Z,98959.31
2022-10-04T08:50:00.749Z,98969.56
2022-10-04T08:52:57.229Z,98962.50
2022-10-04T08:55:49.155Z,98967.16
2022-10-04T08:58:32.714Z,98954.84
2022-10-04T09:01:19.334Z,98973.53
2022-10-04T09:04:27.269Z,98977.91
2022-10-04T09:07:04.853Z,98965.16
2022-10-04T09:09:55.812Z,98970.34
2022-10-04T09:12:50.912Z,98972.88
2022-10-04T09:15:27.304Z,98977.84
2022-10-04T09:18:06.601Z,98976.94
2022-10-04T09:20:50.427Z,98979.50
2022-10-04T09:23:44.574Z,98980.19
2022-10-04T09:26:21.380Z,98975.44
2022-10-04T09:29:14.467Z,98970.59
2022-10-04T09:31:56.137Z,98970.78
2022-10-04T09:34:46.022Z,98967.19
2022-10-04T09:37:29.718Z,98975.75
2022-10-04T09:40:34.691Z,98977.72
2022-10-04T09:43:17.689Z,98968.84
2022-10-04T09:46:03.553Z,98983.34
2022-10-04T09:48:40.642Z,98980.16
2022-10-04T09:51:38.684Z,98987.38
2022-10-04T09:54:33.818Z,98979.56
2022-10-04T09:57:29.573Z,98982.25
2022-10-04T10:00:22.278Z,98986.69
2022-10-04T10:03:41.962Z,98977.22
2022-10-04T10:06:35.341Z,98993.78
2022-10-04T10:09:13.735Z,98983.72
2022-10-04T10:12:10.293Z,98987.06
2022-10-04T10:15:18.406Z,98990.88
2022-10-04T10:17:53.290Z,98985.88
2022-10-04T10:20:27.081Z,98981.28
2022-10-04T10:23:06.371Z,98978.78
2022-10-04T10:25:59.327Z,98978.00
2022-10-04T10:28:51.402Z,98978.63
2022-10-04T10:31:31.090Z,98970.91
2022-10-04T10:34:19.643Z,98978.00
2022-10-04T10:37:01.136Z,98978.47
2022-10-04T10:39:47.661Z,98981.91
2022-10-04T10:42:38.458Z,98979.00
2022-10-04T10:45:21.247Z,98978.69
2022-10-04T10:47:59.769Z,98981.47
2022-10-04T10:51:00.718Z,98985.53
2022-10-04T10:54:12.595Z,98981.03
2022-10-04T10:56:53.021Z,98981.97
2022-10-04T11:00:10.617Z,98986.06
2022-10-04T11:03:21.783Z,98980.53
2022-10-04T11:06:33.187Z,98977.22
2022-10-04T11:09:33.987Z,98976.00
2022-10-04T11:12:34.376Z,98971.22
2022-10-04T11:15:33.747Z,98988.34
2022-10-04T11:18:25.600Z,98981.66
2022-10-04T11:21:14.980Z,98975.50
2022-10-04T11:24:26.062Z,98975.38
2022-10-04T11:27:11.372Z,98977.28
2022-10-04T11:30:01.952Z,98977.03
2022-10-04T11:33:10.003Z,98978.44
2022-10-04T11:35:54.053Z,98973.91
2022-10-04T11:38:48.454Z,98975.06
2022-10-04T11:41:23.183Z,98986.16
2022-10-04T11:44:24.542Z,98981.88
2022-10-04T11:47:00.868Z,98976.72
2022-10-04T11:49:50.527Z,98979.69
2022-10-04T11:52:43.471Z,98973.28
2022-10-04T11:55:35.397Z,98983.50
2022-10-04T11:58:13.401Z,98984.22
2022-10-04T12:01:05.204Z,98987.31
2022-10-04T12:04:16.997Z,98986.38
2022-10-04T12:06:58.347Z,98991.66
2022-10-04T12:09:34.069Z,98997.41
2022-10-04T12:12:38.366Z,98991.88
2022-10-04T12:15:42.271Z,98996.88
2022-10-04T12:18:50.979Z,99006.00
2022-10-04T12:21:36.700Z,98998.16
2022-10-04T12:24:23.298Z,98995.09
2022-10-04T12:27:17.668Z,99002.44
2022-10-04T12:30:22.524Z,98999.59
2022-10-04T12:33:03.528Z,98999.34
2022-10-04T12:35:46.312Z,99006.66
2022-10-04T12:38:45.041Z,99004.81
2022-10-04T12:41:26.063Z,99011.34
2022-10-04T12:44:03.075Z,99000.63
2022-10-04T12:46:45.316Z,99003.53
2022-10-04T12:49:31.879Z,99010.84
2022-10-04T12:52:08.385Z,99011.38
2022-10-04T12:54:42.660Z,99007.44
2022-10-04T12:57:33.124Z,99014.22
2022-10-04T13:00:12.961Z,99013.41
2022-10-04T13:03:10.796Z,99017.88
2022-10-04T13:05:48.648Z,99013.13
2022-10-04T13:08:26.512Z,99018.88
2022-10-04T13:11:26.461Z,99014.16
2022-10-04T13:14:07.920Z,99022.03
2022-10-04T13:19:41.408Z,99014.22
2022-10-04T13:22:43.926Z,99012.13
2022-10-04T13:25:20.174Z,99022.31
2022-10-04T13:27:52.739Z,99017.88
2022-10-04T13:30:23.686Z,99012.91
2022-10-04T13:32:58.017Z,99023.56
2022-10-04T13:35:36.514Z,99014.59
2022-10-04T13:38:31.780Z,99018.50
2022-10-04T13:41:16.350Z,99006.69
2022-10-04T13:44:07.998Z,99012.66
2022-10-04T13:46:45.396Z,99008.47
2022-10-04T13:49:29.830Z,99007.97
2022-10-04T13:52:28.937Z,99014.97
2022-10-04T13:55:29.901Z,99018.09
2022-10-04T13:58:05.789Z,99017.59
2022-10-04T14:00:51.562Z,99025.09
2022-10-04T14:03:39.083Z,99027.53
2022-10-04T14:06:34.092Z,99026.25
2022-10-04T14:09:23.196Z,99023.09
2022-10-04T14:12:25.915Z,99032.72
2022-10-04T14:15:12.143Z,99032.19
2022-10-04T14:18:04.199Z,99031.16
2022-10-04T14:21:03.218Z,99042.88
2022-10-04T14:24:03.624Z,99049.38
2022-10-04T14:26:54.244Z,99043.09
2022-10-04T14:29:52.580Z,99049.59
2022-10-04T14:33:00.911Z,99042.78
2022-10-04T14:35:33.641Z,99056.66
2022-10-04T14:38:35.390Z,99049.66
2022-10-04T14:41:23.810Z,99059.84
2022-10-04T14:44:18.508Z,99056.69
2022-10-04T14:46:58.710Z,99055.84
2022-10-04T14:49:43.315Z,99059.16
2022-10-04T14:52:28.001Z,99058.28
2022-10-04T14:55:10.924Z,99071.81
2022-10-04T14:57:55.382Z,99065.25
2022-10-04T15:00:24.026Z,99074.31
2022-10-04T15:03:19.507Z,99076.84
2022-10-04T15:06:24.477Z,99081.97
2022-10-04T15:09:17.701Z,99085.75
2022-10-04T15:12:25.489Z,99083.31
2022-10-04T15:15:00.371Z,99090.00
2022-10-04T15:17:28.057Z,99090.22
2022-10-04T15:20:07.199Z,99098.97
2022-10-04T15:22:42.119Z,99102.00
2022-10-04T15:25:40.369Z,99103.25
2022-10-04T15:28:24.725Z,99102.09
2022-10-04T15:31:00.851Z,99098.91
2022-10-04T15:33:35.763Z,99103.56
2022-10-04T15:36:39.616Z,99104.28
2022-10-04T15:39:27.146Z,99113.03
2022-10-04T15:42:06.295Z,99109.84
2022-10-04T15:45:02.348Z,99112.09
2022-10-04T15:47:38.458Z,99122.91
2022-10-04T15:50:23.754Z,99128.84
2022-10-04T15:53:16.168Z,99127.19
2022-10-04T15:56:12.318Z,99135.66
2022-10-04T15:58:56.092Z,99134.78
2022-10-04T16:01:48.285Z,99132.34
2022-10-04T16:04:40.620Z,99138.75
2022-10-04T16:07:28.960Z,99138.91
2022-10-04T16:10:01.946Z,99156.69
2022-10-04T16:12:33.245Z,99154.78
2022-10-04T16:15:19.888Z,99160.69
2022-10-04T16:18:05.397Z,99171.00
2022-10-04T16:20:49.306Z,99171.22
2022-10-04T16:23:33.935Z,99166.34
2022-10-04T16:26:03.715Z,99179.63
2022-10-04T16:29:04.666Z,99185.13
2022-10-04T16:31:46.423Z,99187.53
2022-10-04T16:34:29.694Z,99186.00
2022-10-04T16:37:02.190Z,99194.13
2022-10-04T16:39:54.787Z,99192.72
2022-10-04T16:42:27.461Z,99198.69
2022-10-04T16:44:59.524Z,99202.06
2022-10-04T16:47:33.388Z,99209.66
2022-10-04T16:50:01.862Z,99215.41
2022-10-04T16:52:50.265Z,99216.53
2022-10-04T16:55:44.894Z,99222.06
2022-10-04T16:58:54.752Z,99222.28
2022-10-04T17:01:51.751Z,99234.03
2022-10-04T17:04:56.269Z,99236.94
2022-10-04T17:07:33.845Z,99235.06
2022-10-04T17:10:16.367Z,99238.78
2022-10-04T17:12:48.798Z,99243.03
2022-10-04T17:15:44.211Z,99245.16
2022-10-04T17:18:24.644Z,99252.22
2022-10-04T17:20:57.213Z,99255.09
2022-10-04T17:23:51.284Z,99267.34
2022-10-04T17:26:35.387Z,99270.88
2022-10-04T17:29:15.407Z,99269.38
2022-10-04T17:31:52.290Z,99278.88
2022-10-04T17:34:36.174Z,99273.94
2022-10-04T17:37:16.106Z,99275.59
2022-10-04T17:39:47.585Z,99273.66
2022-10-04T17:42:26.033Z,99288.03
2022-10-04T17:45:07.824Z,99294.19
2022-10-04T17:47:58.004Z,99295.41
2022-10-04T17:50:49.197Z,99300.81
2022-10-04T17:53:41.845Z,99306.59
2022-10-04T17:56:11.798Z,99311.38
2022-10-04T17:58:44.221Z,99312.25
2022-10-04T18:01:14.480Z,99312.09
2022-10-04T18:03:45.335Z,99312.38
2022-10-04T18:06:25.691Z,99319.31
2022-10-04T18:08:57.709Z,99319.38
2022-10-04T18:11:32.933Z,99322.16
2022-10-04T18:14:02.533Z,99318.78
2022-10-04T18:16:31.801Z,99329.59
2022-10-04T18:19:23.771Z,99328.22
2022-10-04T18:21:54.216Z,99330.81
2022-10-04T18:24:29.303Z,99333.81
2022-10-04T18:27:00.649Z,99336.03
2022-10-04T18:29:39.229Z,99338.50
2022-10-04T18:32:32.889Z,99342.69
2022-10-04T18:35:02.090Z,99340.31
2022-10-04T18:37:33.785Z,99353.22
2022-10-04T18:40:15.998Z,99356.63
2022-10-04T18:42:49.338Z,99362.97
2022-10-04T18:45:22.930Z,99360.59
2022-10-04T18:47:53.815Z,99359.66
2022-10-04T18:50:32.234Z,99369.78
2022-10-04T18:53:21.482Z,99374.16
2022-10-04T18:55:58.684Z,99384.88
2022-10-04T18:58:58.872Z,99389.25
2022-10-04T19:02:00.594Z,99388.66
2022-10-04T19:04:37.114Z,99388.06
2022-10-04T19:07:10.883Z,99388.25
2022-10-04T19:10:06.335Z,99393.03
2022-10-04T19:12:43.564Z,99393.66
2022-10-04T19:15:26.197Z,99395.22
2022-10-04T19:18:03.286Z,99394.22
2022-10-04T19:20:39.098Z,99397.41
2022-10-04T19:23:19.912Z,99398.38
2022-10-04T19:26:17.650Z,99398.81
2022-10-04T19:28:41.338Z,99399.22
2022-10-04T19:31:17.456Z,99403.16
2022-10-04T19:33:50.616Z,99406.75
2022-10-04T19:36:32.540Z,99405.56
2022-10-04T19:39:12.367Z,99414.72
2022-10-04T19:41:51.569Z,99408.59
2022-10-04T19:44:31.456Z,99415.91
2022-10-04T19:47:03.466Z,99409.59
2022-10-04T19:49:42.482Z,99409.41
2022-10-04T19:52:23.273Z,99413.59
2022-10-04T19:54:56.483Z,99413.19
2022-10-04T19:57:36.049Z,99418.34
2022-10-04T20:00:12.806Z,99423.09
2022-10-04T20:02:44.720Z,99424.31
2022-10-04T20:05:20.095Z,99418.34
2022-10-04T20:07:51.809Z,99426.06
2022-10-04T20:10:29.970Z,99429.03
2022-10-04T20:13:23.647Z,99433.63
2022-10-04T20:15:57.981Z,99429.88
2022-10-04T20:19:07.073Z,99455.63
2022-10-04T20:21:36.102Z,99454.81
2022-10-04T20:24:03.637Z,99457.59
2022-10-04T20:27:00.225Z,99454.81
2022-10-04T20:30:06.769Z,99456.22
2022-10-04T20:32:54.783Z,99457.19
2022-10-04T20:36:09.304Z,99462.94
2022-10-04T20:38:54.234Z,99467.28
2022-10-04T20:42:19.110Z,99472.25
2022-10-04T20:44:55.876Z,99478.19
2022-10-04T20:47:39.925Z,99473.25
2022-10-04T20:50:21.711Z,99478.59
2022-10-04T20:52:51.172Z,99489.28
2022-10-04T20:55:21.834Z,99488.13
2022-10-04T20:57:49.024Z,99498.81
2022-10-04T21:00:25.678Z,99491.69
2022-10-04T21:03:13.510Z,99500.00
2022-10-04T21:05:42.334Z,99501.00
2022-10-04T21:08:12.608Z,99494.84
2022-10-04T21:10:39.741Z,99498.03
2022-10-04T21:13:07.481Z,99501.22
2022-10-04T21:15:34.626Z,99497.63
2022-10-04T21:18:04.678Z,99498.41
2022-10-04T21:20:44.759Z,99503.56
2022-10-04T21:23:23.165Z,99504.75
2022-10-04T21:25:50.817Z,99502.78
2022-10-04T21:28:38.725Z,99507.53
2022-10-04T21:31:06.141Z,99503.16
2022-10-04T21:33:34.567Z,99500.38
2022-10-04T21:36:04.462Z,99498.00
2022-10-04T21:38:31.929Z,99507.31
2022-10-04T21:40:59.030Z,99511.66
2022-10-04T21:43:26.574Z,99503.47
2022-10-04T21:45:53.983Z,99509.44
2022-10-04T21:48:23.226Z,99499.72
2022-10-04T21:50:52.049Z,99506.81
2022-10-04T21:53:21.481Z,99512.56
2022-10-04T21:55:49.107Z,99520.09
2022-10-04T21:58:16.518Z,99511.38
2022-10-04T22:00:43.810Z,99512.78
2022-10-04T22:03:10.979Z,99525.47
2022-10-04T22:05:38.183Z,99521.50
2022-10-04T22:08:05.422Z,99522.06
2022-10-04T22:10:33.939Z,99522.25
2022-10-04T22:13:01.078Z,99525.63
2022-10-04T22:15:29.038Z,99522.25
2022-10-04T22:17:56.191Z,99535.13
2022-10-04T22:20:24.549Z,99532.75
2022-10-04T22:22:52.569Z,99529.78
2022-10-04T22:25:21.222Z,99529.34
2022-10-04T22:27:51.997Z,99526.38
2022-10-04T22:30:25.231Z,99536.63
2022-10-04T22:32:55.327Z,99526.13
2022-10-04T22:35:22.682Z,99529.66
2022-10-04T22:37:50.258Z,99532.22
2022-10-04T22:40:20.128Z,99537.13
2022-10-04T22:42:51.537Z,99529.78
2022-10-04T22:45:21.962Z,99528.75
2022-10-04T22:47:50.418Z,99538.50
2022-10-04T22:50:36.137Z,99533.75
2022-10-04T22:53:05.074Z,99546.84
2022-10-04T22:55:32.245Z,99538.88
2022-10-04T22:58:01.767Z,99542.69
2022-10-04T23:00:29.001Z,99558.16
2022-10-04T23:02:56.629Z,99551.63
2022-10-04T23:05:23.955Z,99544.16
2022-10-04T23:07:51.064Z,99551.69
2022-10-04T23:10:19.645Z,99550.88
2022-10-04T23:12:52.041Z,99553.22
2022-10-04T23:15:20.964Z,99553.44
2022-10-04T23:17:54.303Z,99548.47
2022-10-04T23:20:22.249Z,99553.44
2022-10-04T23:22:50.769Z,99548.47
2022-10-04T23:25:19.757Z,99552.19
2022-10-04T23:27:47.630Z,99549.81
2022-10-04T23:30:17.172Z,99546.66
2022-10-04T23:32:48.162Z,99566.22
2022-10-04T23:35:18.488Z,99566.78
2022-10-04T23:37:46.243Z,99561.44
2022-10-04T23:40:16.340Z,99557.88
2022-10-04T23:42:44.705Z,99560.88
2022-10-04T23:45:17.081Z,99563.47
2022-10-04T23:47:47.174Z,99562.66
2022-10-04T23:50:24.130Z,99560.28
2022-10-04T23:52:55.245Z,99564.22
2022-10-04T23:55:24.121Z,99573.09
2022-10-04T23:57:51.483Z,99576.63
